sensor_id;sensor_type;location;lat;lon;timestamp;P1;durP1;ratioP1;P2;durP2;ratioP2
35522;SDS011;61478;50.820;4.330;2023-02-11T00:00:59;20.27;;;11.40;;
35522;SDS011;61478;50.820;4.330;2023-02-11T00:03:30;28.73;;;12.40;;
35522;SDS011;61478;50.820;4.330;2023-02-11T00:05:59;27.63;;;13.45;;
35522;SDS011;61478;50.820;4.330;2023-02-11T00:08:26;36.40;;;13.85;;
35522;SDS011;61478;50.820;4.330;2023-02-11T00:10:53;24.15;;;11.05;;
35522;SDS011;61478;50.820;4.330;2023-02-11T00:13:20;22.67;;;11.35;;
35522;SDS011;61478;50.820;4.330;2023-02-11T00:15:46;28.83;;;12.63;;
35522;SDS011;61478;50.820;4.330;2023-02-11T00:18:12;26.02;;;11.63;;
35522;SDS011;61478;50.820;4.330;2023-02-11T00:20:38;31.08;;;12.80;;
35522;SDS011;61478;50.820;4.330;2023-02-11T00:23:05;30.65;;;11.70;;
35522;SDS011;61478;50.820;4.330;2023-02-11T00:25:31;21.55;;;11.35;;
35522;SDS011;61478;50.820;4.330;2023-02-11T00:27:56;27.17;;;10.88;;
35522;SDS011;61478;50.820;4.330;2023-02-11T00:30:23;26.63;;;11.60;;
35522;SDS011;61478;50.820;4.330;2023-02-11T00:32:49;23.23;;;11.45;;
35522;SDS011;61478;50.820;4.330;2023-02-11T00:35:15;29.70;;;10.52;;
35522;SDS011;61478;50.820;4.330;2023-02-11T00:37:41;22.65;;;11.07;;
35522;SDS011;61478;50.820;4.330;2023-02-11T00:40:07;20.60;;;10.13;;
35522;SDS011;61478;50.820;4.330;2023-02-11T00:42:33;27.48;;;11.32;;
35522;SDS011;61478;50.820;4.330;2023-02-11T00:45:02;22.20;;;10.00;;
35522;SDS011;61478;50.820;4.330;2023-02-11T00:47:28;25.38;;;11.00;;
35522;SDS011;61478;50.820;4.330;2023-02-11T00:50:02;25.65;;;10.43;;
35522;SDS011;61478;50.820;4.330;2023-02-11T00:52:29;31.67;;;10.77;;
35522;SDS011;61478;50.820;4.330;2023-02-11T00:54:56;24.38;;;10.73;;
35522;SDS011;61478;50.820;4.330;2023-02-11T00:57:22;21.83;;;10.35;;
35522;SDS011;61478;50.820;4.330;2023-02-11T00:59:48;30.55;;;10.50;;
35522;SDS011;61478;50.820;4.330;2023-02-11T01:02:14;24.98;;;10.80;;
35522;SDS011;61478;50.820;4.330;2023-02-11T01:04:41;27.58;;;10.75;;
35522;SDS011;61478;50.820;4.330;2023-02-11T01:07:07;30.35;;;11.38;;
35522;SDS011;61478;50.820;4.330;2023-02-11T01:09:33;28.27;;;10.57;;
35522;SDS011;61478;50.820;4.330;2023-02-11T01:12:02;27.02;;;10.95;;
35522;SDS011;61478;50.820;4.330;2023-02-11T01:14:28;26.30;;;11.60;;
35522;SDS011;61478;50.820;4.330;2023-02-11T01:16:54;40.25;;;11.63;;
35522;SDS011;61478;50.820;4.330;2023-02-11T01:19:19;22.13;;;10.95;;
35522;SDS011;61478;50.820;4.330;2023-02-11T01:21:45;28.70;;;10.95;;
35522;SDS011;61478;50.820;4.330;2023-02-11T01:24:11;21.30;;;11.10;;
35522;SDS011;61478;50.820;4.330;2023-02-11T01:26:37;30.20;;;11.90;;
35522;SDS011;61478;50.820;4.330;2023-02-11T01:29:03;26.40;;;11.10;;
35522;SDS011;61478;50.820;4.330;2023-02-11T01:31:29;24.73;;;10.80;;
35522;SDS011;61478;50.820;4.330;2023-02-11T01:33:56;24.90;;;10.95;;
35522;SDS011;61478;50.820;4.330;2023-02-11T01:36:22;24.45;;;11.77;;
35522;SDS011;61478;50.820;4.330;2023-02-11T01:38:47;28.55;;;11.85;;
35522;SDS011;61478;50.820;4.330;2023-02-11T01:41:14;27.40;;;12.10;;
35522;SDS011;61478;50.820;4.330;2023-02-11T01:43:42;23.50;;;12.45;;
35522;SDS011;61478;50.820;4.330;2023-02-11T01:49:02;20.67;;;10.70;;
35522;SDS011;61478;50.820;4.330;2023-02-11T01:51:36;27.48;;;11.80;;
35522;SDS011;61478;50.820;4.330;2023-02-11T01:54:06;28.77;;;11.18;;
35522;SDS011;61478;50.820;4.330;2023-02-11T01:56:53;34.30;;;10.35;;
35522;SDS011;61478;50.820;4.330;2023-02-11T02:02:31;25.60;;;10.95;;
35522;SDS011;61478;50.820;4.330;2023-02-11T02:05:04;23.40;;;11.07;;
35522;SDS011;61478;50.820;4.330;2023-02-11T02:07:52;27.80;;;11.60;;
35522;SDS011;61478;50.820;4.330;2023-02-11T02:10:33;29.40;;;12.65;;
35522;SDS011;61478;50.820;4.330;2023-02-11T02:13:05;17.50;;;9.23;;
35522;SDS011;61478;50.820;4.330;2023-02-11T02:15:32;23.85;;;9.77;;
35522;SDS011;61478;50.820;4.330;2023-02-11T02:18:00;22.75;;;9.38;;
35522;SDS011;61478;50.820;4.330;2023-02-11T02:23:25;27.60;;;10.32;;
35522;SDS011;61478;50.820;4.330;2023-02-11T02:34:29;32.30;;;10.75;;
35522;SDS011;61478;50.820;4.330;2023-02-11T02:37:14;22.92;;;8.95;;
35522;SDS011;61478;50.820;4.330;2023-02-11T02:39:45;20.20;;;8.07;;
35522;SDS011;61478;50.820;4.330;2023-02-11T02:42:14;24.90;;;9.57;;
35522;SDS011;61478;50.820;4.330;2023-02-11T02:44:51;23.55;;;9.15;;
35522;SDS011;61478;50.820;4.330;2023-02-11T02:47:20;26.35;;;9.45;;
35522;SDS011;61478;50.820;4.330;2023-02-11T02:49:46;26.85;;;9.40;;
35522;SDS011;61478;50.820;4.330;2023-02-11T02:52:18;21.77;;;9.10;;
35522;SDS011;61478;50.820;4.330;2023-02-11T02:58:10;25.48;;;8.95;;
35522;SDS011;61478;50.820;4.330;2023-02-11T03:03:44;22.80;;;9.43;;
35522;SDS011;61478;50.820;4.330;2023-02-11T03:07:07;22.17;;;9.27;;
35522;SDS011;61478;50.820;4.330;2023-02-11T03:09:56;19.13;;;8.15;;
35522;SDS011;61478;50.820;4.330;2023-02-11T03:12:39;24.05;;;9.05;;
35522;SDS011;61478;50.820;4.330;2023-02-11T03:15:08;23.23;;;9.70;;
35522;SDS011;61478;50.820;4.330;2023-02-11T03:17:35;22.83;;;9.85;;
35522;SDS011;61478;50.820;4.330;2023-02-11T03:20:06;24.45;;;9.80;;
35522;SDS011;61478;50.820;4.330;2023-02-11T03:22:37;19.80;;;9.98;;
35522;SDS011;61478;50.820;4.330;2023-02-11T03:25:08;25.88;;;9.40;;
35522;SDS011;61478;50.820;4.330;2023-02-11T03:27:38;24.67;;;9.48;;
35522;SDS011;61478;50.820;4.330;2023-02-11T03:30:20;21.45;;;10.30;;
35522;SDS011;61478;50.820;4.330;2023-02-11T03:33:02;21.65;;;10.45;;
35522;SDS011;61478;50.820;4.330;2023-02-11T03:35:40;31.45;;;11.05;;
35522;SDS011;61478;50.820;4.330;2023-02-11T03:38:13;27.50;;;10.65;;
35522;SDS011;61478;50.820;4.330;2023-02-11T03:40:49;30.42;;;10.75;;
35522;SDS011;61478;50.820;4.330;2023-02-11T03:43:21;18.80;;;10.52;;
35522;SDS011;61478;50.820;4.330;2023-02-11T03:45:58;23.83;;;10.93;;
35522;SDS011;61478;50.820;4.330;2023-02-11T03:48:27;20.77;;;10.48;;
35522;SDS011;61478;50.820;4.330;2023-02-11T03:50:57;30.50;;;11.90;;
35522;SDS011;61478;50.820;4.330;2023-02-11T03:53:26;21.85;;;10.43;;
35522;SDS011;61478;50.820;4.330;2023-02-11T03:55:53;33.58;;;11.25;;
35522;SDS011;61478;50.820;4.330;2023-02-11T03:58:20;32.13;;;11.50;;
35522;SDS011;61478;50.820;4.330;2023-02-11T04:00:46;32.30;;;11.23;;
35522;SDS011;61478;50.820;4.330;2023-02-11T04:03:12;24.33;;;10.05;;
35522;SDS011;61478;50.820;4.330;2023-02-11T04:05:39;26.33;;;10.30;;
35522;SDS011;61478;50.820;4.330;2023-02-11T04:08:05;31.85;;;11.50;;
35522;SDS011;61478;50.820;4.330;2023-02-11T04:10:31;30.85;;;11.90;;
35522;SDS011;61478;50.820;4.330;2023-02-11T04:12:57;29.08;;;11.15;;
35522;SDS011;61478;50.820;4.330;2023-02-11T04:15:23;25.60;;;11.77;;
35522;SDS011;61478;50.820;4.330;2023-02-11T04:17:49;27.08;;;11.70;;
35522;SDS011;61478;50.820;4.330;2023-02-11T04:20:15;28.15;;;11.18;;
35522;SDS011;61478;50.820;4.330;2023-02-11T04:22:41;26.35;;;11.00;;
35522;SDS011;61478;50.820;4.330;2023-02-11T04:25:07;21.27;;;10.15;;
35522;SDS011;61478;50.820;4.330;2023-02-11T04:27:33;24.23;;;12.20;;
35522;SDS011;61478;50.820;4.330;2023-02-11T04:29:59;27.42;;;11.57;;
35522;SDS011;61478;50.820;4.330;2023-02-11T04:32:25;28.20;;;11.20;;
35522;SDS011;61478;50.820;4.330;2023-02-11T04:34:51;27.52;;;12.77;;
35522;SDS011;61478;50.820;4.330;2023-02-11T04:37:18;22.77;;;11.07;;
35522;SDS011;61478;50.820;4.330;2023-02-11T04:39:44;26.75;;;10.65;;
35522;SDS011;61478;50.820;4.330;2023-02-11T04:42:10;36.90;;;12.20;;
35522;SDS011;61478;50.820;4.330;2023-02-11T04:44:37;28.45;;;12.95;;
35522;SDS011;61478;50.820;4.330;2023-02-11T04:47:03;25.60;;;11.65;;
35522;SDS011;61478;50.820;4.330;2023-02-11T04:49:29;20.25;;;11.13;;
35522;SDS011;61478;50.820;4.330;2023-02-11T04:51:55;30.80;;;11.88;;
35522;SDS011;61478;50.820;4.330;2023-02-11T04:54:21;26.75;;;11.25;;
35522;SDS011;61478;50.820;4.330;2023-02-11T04:56:47;23.75;;;11.70;;
35522;SDS011;61478;50.820;4.330;2023-02-11T04:59:14;21.98;;;11.75;;
35522;SDS011;61478;50.820;4.330;2023-02-11T05:01:40;23.50;;;11.60;;
35522;SDS011;61478;50.820;4.330;2023-02-11T05:04:06;25.83;;;12.38;;
35522;SDS011;61478;50.820;4.330;2023-02-11T05:06:32;20.83;;;12.23;;
35522;SDS011;61478;50.820;4.330;2023-02-11T05:08:57;26.67;;;12.55;;
35522;SDS011;61478;50.820;4.330;2023-02-11T05:11:23;24.20;;;11.75;;
35522;SDS011;61478;50.820;4.330;2023-02-11T05:13:50;34.67;;;12.73;;
35522;SDS011;61478;50.820;4.330;2023-02-11T05:16:16;31.77;;;13.02;;
35522;SDS011;61478;50.820;4.330;2023-02-11T05:18:43;23.40;;;12.20;;
35522;SDS011;61478;50.820;4.330;2023-02-11T05:21:14;33.80;;;13.70;;
35522;SDS011;61478;50.820;4.330;2023-02-11T05:23:42;28.48;;;13.38;;
35522;SDS011;61478;50.820;4.330;2023-02-11T05:26:08;21.60;;;12.98;;
35522;SDS011;61478;50.820;4.330;2023-02-11T05:28:35;33.45;;;14.18;;
35522;SDS011;61478;50.820;4.330;2023-02-11T05:31:01;32.28;;;13.52;;
35522;SDS011;61478;50.820;4.330;2023-02-11T05:33:27;28.02;;;14.23;;
35522;SDS011;61478;50.820;4.330;2023-02-11T05:35:57;35.38;;;14.90;;
35522;SDS011;61478;50.820;4.330;2023-02-11T05:38:24;37.47;;;15.10;;
35522;SDS011;61478;50.820;4.330;2023-02-11T05:40:50;27.85;;;15.23;;
35522;SDS011;61478;50.820;4.330;2023-02-11T05:43:16;29.42;;;15.25;;
35522;SDS011;61478;50.820;4.330;2023-02-11T05:45:42;36.60;;;18.27;;
35522;SDS011;61478;50.820;4.330;2023-02-11T05:48:08;29.90;;;17.08;;
35522;SDS011;61478;50.820;4.330;2023-02-11T05:50:34;30.48;;;16.83;;
35522;SDS011;61478;50.820;4.330;2023-02-11T05:53:00;34.92;;;17.35;;
35522;SDS011;61478;50.820;4.330;2023-02-11T05:55:25;36.65;;;17.27;;
35522;SDS011;61478;50.820;4.330;2023-02-11T05:57:51;40.22;;;19.33;;
35522;SDS011;61478;50.820;4.330;2023-02-11T06:00:17;45.63;;;19.40;;
35522;SDS011;61478;50.820;4.330;2023-02-11T06:02:43;35.25;;;19.35;;
35522;SDS011;61478;50.820;4.330;2023-02-11T06:05:09;38.95;;;18.50;;
35522;SDS011;61478;50.820;4.330;2023-02-11T06:07:35;35.25;;;19.55;;
35522;SDS011;61478;50.820;4.330;2023-02-11T06:10:05;34.00;;;18.90;;
35522;SDS011;61478;50.820;4.330;2023-02-11T06:12:32;41.53;;;19.75;;
35522;SDS011;61478;50.820;4.330;2023-02-11T06:14:57;46.08;;;19.38;;
35522;SDS011;61478;50.820;4.330;2023-02-11T06:17:23;38.95;;;18.15;;
35522;SDS011;61478;50.820;4.330;2023-02-11T06:19:49;35.35;;;19.02;;
35522;SDS011;61478;50.820;4.330;2023-02-11T06:22:15;38.72;;;20.08;;
35522;SDS011;61478;50.820;4.330;2023-02-11T06:24:41;36.90;;;19.65;;
35522;SDS011;61478;50.820;4.330;2023-02-11T06:27:07;41.17;;;19.58;;
35522;SDS011;61478;50.820;4.330;2023-02-11T06:29:33;38.83;;;19.70;;
35522;SDS011;61478;50.820;4.330;2023-02-11T06:32:00;42.92;;;20.25;;
35522;SDS011;61478;50.820;4.330;2023-02-11T06:34:26;46.28;;;21.48;;
35522;SDS011;61478;50.820;4.330;2023-02-11T06:36:52;42.50;;;21.67;;
35522;SDS011;61478;50.820;4.330;2023-02-11T06:39:17;38.13;;;21.30;;
35522;SDS011;61478;50.820;4.330;2023-02-11T06:41:43;38.75;;;20.33;;
35522;SDS011;61478;50.820;4.330;2023-02-11T06:44:09;45.47;;;21.70;;
35522;SDS011;61478;50.820;4.330;2023-02-11T06:46:35;41.22;;;21.77;;
35522;SDS011;61478;50.820;4.330;2023-02-11T06:49:01;42.40;;;22.38;;
35522;SDS011;61478;50.820;4.330;2023-02-11T06:51:27;46.55;;;26.40;;
35522;SDS011;61478;50.820;4.330;2023-02-11T06:53:53;43.08;;;22.35;;
35522;SDS011;61478;50.820;4.330;2023-02-11T06:56:22;55.58;;;23.73;;
35522;SDS011;61478;50.820;4.330;2023-02-11T06:58:54;40.65;;;20.90;;
35522;SDS011;61478;50.820;4.330;2023-02-11T07:01:20;50.13;;;23.33;;
35522;SDS011;61478;50.820;4.330;2023-02-11T07:03:48;46.47;;;23.15;;
35522;SDS011;61478;50.820;4.330;2023-02-11T07:06:15;37.00;;;22.45;;
35522;SDS011;61478;50.820;4.330;2023-02-11T07:08:43;41.42;;;22.02;;
35522;SDS011;61478;50.820;4.330;2023-02-11T07:11:20;41.40;;;23.42;;
35522;SDS011;61478;50.820;4.330;2023-02-11T07:13:51;48.53;;;23.85;;
35522;SDS011;61478;50.820;4.330;2023-02-11T07:16:19;48.33;;;23.67;;
35522;SDS011;61478;50.820;4.330;2023-02-11T07:18:45;43.85;;;23.75;;
35522;SDS011;61478;50.820;4.330;2023-02-11T07:21:13;44.00;;;23.33;;
35522;SDS011;61478;50.820;4.330;2023-02-11T07:23:43;46.95;;;21.55;;
35522;SDS011;61478;50.820;4.330;2023-02-11T07:26:13;50.50;;;21.63;;
35522;SDS011;61478;50.820;4.330;2023-02-11T07:28:41;38.13;;;21.75;;
35522;SDS011;61478;50.820;4.330;2023-02-11T07:33:39;40.97;;;23.10;;
35522;SDS011;61478;50.820;4.330;2023-02-11T07:36:11;38.40;;;23.20;;
35522;SDS011;61478;50.820;4.330;2023-02-11T07:38:39;43.28;;;23.73;;
35522;SDS011;61478;50.820;4.330;2023-02-11T07:41:06;40.20;;;24.23;;
35522;SDS011;61478;50.820;4.330;2023-02-11T07:43:35;53.72;;;25.13;;
35522;SDS011;61478;50.820;4.330;2023-02-11T07:46:02;51.72;;;25.25;;
35522;SDS011;61478;50.820;4.330;2023-02-11T07:48:30;54.72;;;27.80;;
35522;SDS011;61478;50.820;4.330;2023-02-11T07:51:16;51.15;;;27.30;;
35522;SDS011;61478;50.820;4.330;2023-02-11T07:53:44;45.60;;;26.08;;
35522;SDS011;61478;50.820;4.330;2023-02-11T07:56:11;44.83;;;25.45;;
35522;SDS011;61478;50.820;4.330;2023-02-11T07:58:39;49.90;;;27.17;;
35522;SDS011;61478;50.820;4.330;2023-02-11T08:01:08;49.60;;;26.92;;
35522;SDS011;61478;50.820;4.330;2023-02-11T08:03:35;51.00;;;27.42;;
35522;SDS011;61478;50.820;4.330;2023-02-11T08:06:08;57.05;;;29.73;;
35522;SDS011;61478;50.820;4.330;2023-02-11T08:08:38;56.72;;;27.35;;
35522;SDS011;61478;50.820;4.330;2023-02-11T08:11:05;53.60;;;28.05;;
35522;SDS011;61478;50.820;4.330;2023-02-11T08:13:32;58.78;;;28.05;;
35522;SDS011;61478;50.820;4.330;2023-02-11T08:15:59;53.72;;;27.52;;
35522;SDS011;61478;50.820;4.330;2023-02-11T08:18:25;64.68;;;27.40;;
35522;SDS011;61478;50.820;4.330;2023-02-11T08:20:50;56.58;;;27.00;;
35522;SDS011;61478;50.820;4.330;2023-02-11T08:23:16;58.80;;;29.45;;
35522;SDS011;61478;50.820;4.330;2023-02-11T08:25:43;56.78;;;29.67;;
35522;SDS011;61478;50.820;4.330;2023-02-11T08:28:09;57.70;;;30.25;;
35522;SDS011;61478;50.820;4.330;2023-02-11T08:30:34;60.20;;;30.17;;
35522;SDS011;61478;50.820;4.330;2023-02-11T08:33:00;63.58;;;29.90;;
35522;SDS011;61478;50.820;4.330;2023-02-11T08:35:26;65.75;;;30.83;;
35522;SDS011;61478;50.820;4.330;2023-02-11T08:37:52;53.28;;;28.67;;
35522;SDS011;61478;50.820;4.330;2023-02-11T08:40:18;65.30;;;31.55;;
35522;SDS011;61478;50.820;4.330;2023-02-11T08:42:44;66.97;;;31.77;;
35522;SDS011;61478;50.820;4.330;2023-02-11T08:45:10;65.28;;;32.13;;
35522;SDS011;61478;50.820;4.330;2023-02-11T08:47:37;66.40;;;31.80;;
35522;SDS011;61478;50.820;4.330;2023-02-11T08:50:04;59.35;;;26.23;;
35522;SDS011;61478;50.820;4.330;2023-02-11T08:52:30;62.25;;;30.33;;
35522;SDS011;61478;50.820;4.330;2023-02-11T08:54:56;65.75;;;32.50;;
35522;SDS011;61478;50.820;4.330;2023-02-11T08:57:22;69.20;;;33.20;;
35522;SDS011;61478;50.820;4.330;2023-02-11T08:59:49;69.20;;;33.70;;
35522;SDS011;61478;50.820;4.330;2023-02-11T09:02:15;75.68;;;33.92;;
35522;SDS011;61478;50.820;4.330;2023-02-11T09:04:41;71.45;;;33.92;;
35522;SDS011;61478;50.820;4.330;2023-02-11T09:07:07;66.13;;;32.72;;
35522;SDS011;61478;50.820;4.330;2023-02-11T09:09:33;85.28;;;35.88;;
35522;SDS011;61478;50.820;4.330;2023-02-11T09:11:59;77.47;;;34.67;;
35522;SDS011;61478;50.820;4.330;2023-02-11T09:14:25;73.00;;;32.60;;
35522;SDS011;61478;50.820;4.330;2023-02-11T09:16:51;74.70;;;35.83;;
35522;SDS011;61478;50.820;4.330;2023-02-11T09:19:18;69.03;;;34.42;;
35522;SDS011;61478;50.820;4.330;2023-02-11T09:21:44;75.85;;;36.92;;
35522;SDS011;61478;50.820;4.330;2023-02-11T09:24:10;86.70;;;37.20;;
35522;SDS011;61478;50.820;4.330;2023-02-11T09:26:37;79.75;;;37.35;;
35522;SDS011;61478;50.820;4.330;2023-02-11T09:29:04;75.82;;;35.30;;
35522;SDS011;61478;50.820;4.330;2023-02-11T09:31:31;72.53;;;34.83;;
35522;SDS011;61478;50.820;4.330;2023-02-11T09:33:59;70.50;;;35.40;;
35522;SDS011;61478;50.820;4.330;2023-02-11T09:36:29;76.05;;;37.85;;
35522;SDS011;61478;50.820;4.330;2023-02-11T09:38:58;82.00;;;38.55;;
35522;SDS011;61478;50.820;4.330;2023-02-11T09:44:22;77.32;;;37.00;;
35522;SDS011;61478;50.820;4.330;2023-02-11T09:46:53;80.03;;;36.78;;
35522;SDS011;61478;50.820;4.330;2023-02-11T09:49:25;70.38;;;35.60;;
35522;SDS011;61478;50.820;4.330;2023-02-11T09:52:06;68.63;;;36.08;;
35522;SDS011;61478;50.820;4.330;2023-02-11T09:54:52;82.78;;;38.55;;
35522;SDS011;61478;50.820;4.330;2023-02-11T09:57:20;80.80;;;37.03;;
35522;SDS011;61478;50.820;4.330;2023-02-11T09:59:46;78.68;;;39.75;;
35522;SDS011;61478;50.820;4.330;2023-02-11T10:02:17;76.90;;;37.58;;
35522;SDS011;61478;50.820;4.330;2023-02-11T10:05:24;73.90;;;37.78;;
35522;SDS011;61478;50.820;4.330;2023-02-11T10:08:08;78.00;;;38.67;;
35522;SDS011;61478;50.820;4.330;2023-02-11T10:10:43;78.00;;;39.80;;
35522;SDS011;61478;50.820;4.330;2023-02-11T10:21:23;77.93;;;39.50;;
35522;SDS011;61478;50.820;4.330;2023-02-11T10:24:00;82.25;;;39.35;;
35522;SDS011;61478;50.820;4.330;2023-02-11T10:26:33;78.63;;;39.92;;
35522;SDS011;61478;50.820;4.330;2023-02-11T10:29:04;84.78;;;40.25;;
35522;SDS011;61478;50.820;4.330;2023-02-11T10:31:59;82.93;;;39.22;;
35522;SDS011;61478;50.820;4.330;2023-02-11T10:34:28;75.47;;;40.53;;
35522;SDS011;61478;50.820;4.330;2023-02-11T10:36:54;78.25;;;39.13;;
35522;SDS011;61478;50.820;4.330;2023-02-11T10:39:21;77.97;;;39.20;;
35522;SDS011;61478;50.820;4.330;2023-02-11T10:41:50;86.63;;;41.70;;
35522;SDS011;61478;50.820;4.330;2023-02-11T10:44:32;70.53;;;39.47;;
35522;SDS011;61478;50.820;4.330;2023-02-11T10:50:07;82.30;;;40.92;;
35522;SDS011;61478;50.820;4.330;2023-02-11T10:52:48;76.70;;;39.35;;
35522;SDS011;61478;50.820;4.330;2023-02-11T10:55:15;79.93;;;41.70;;
35522;SDS011;61478;50.820;4.330;2023-02-11T10:57:49;82.47;;;41.97;;
35522;SDS011;61478;50.820;4.330;2023-02-11T11:00:33;77.22;;;41.25;;
35522;SDS011;61478;50.820;4.330;2023-02-11T11:03:04;73.63;;;39.72;;
35522;SDS011;61478;50.820;4.330;2023-02-11T11:05:48;78.75;;;40.88;;
35522;SDS011;61478;50.820;4.330;2023-02-11T11:08:15;85.22;;;41.72;;
35522;SDS011;61478;50.820;4.330;2023-02-11T11:10:44;84.45;;;42.83;;
35522;SDS011;61478;50.820;4.330;2023-02-11T11:16:08;86.50;;;43.60;;
35522;SDS011;61478;50.820;4.330;2023-02-11T11:18:41;93.35;;;45.13;;
35522;SDS011;61478;50.820;4.330;2023-02-11T11:21:12;83.80;;;43.03;;
35522;SDS011;61478;50.820;4.330;2023-02-11T11:23:56;83.40;;;45.97;;
35522;SDS011;61478;50.820;4.330;2023-02-11T11:26:29;86.13;;;46.00;;
35522;SDS011;61478;50.820;4.330;2023-02-11T11:29:09;76.53;;;43.60;;
35522;SDS011;61478;50.820;4.330;2023-02-11T11:31:49;87.18;;;44.25;;
35522;SDS011;61478;50.820;4.330;2023-02-11T11:36:53;83.28;;;44.13;;
35522;SDS011;61478;50.820;4.330;2023-02-11T11:39:25;82.80;;;44.90;;
35522;SDS011;61478;50.820;4.330;2023-02-11T11:41:54;79.38;;;44.17;;
35522;SDS011;61478;50.820;4.330;2023-02-11T11:46:52;90.25;;;46.17;;
35522;SDS011;61478;50.820;4.330;2023-02-11T11:49:33;88.32;;;43.60;;
35522;SDS011;61478;50.820;4.330;2023-02-11T11:52:17;81.22;;;42.38;;
35522;SDS011;61478;50.820;4.330;2023-02-11T11:54:58;72.68;;;41.65;;
35522;SDS011;61478;50.820;4.330;2023-02-11T11:57:28;96.15;;;44.60;;
35522;SDS011;61478;50.820;4.330;2023-02-11T11:59:58;81.80;;;42.17;;
35522;SDS011;61478;50.820;4.330;2023-02-11T12:05:52;82.32;;;42.90;;
35522;SDS011;61478;50.820;4.330;2023-02-11T12:08:36;90.03;;;44.75;;
35522;SDS011;61478;50.820;4.330;2023-02-11T12:27:34;87.18;;;45.63;;
35522;SDS011;61478;50.820;4.330;2023-02-11T12:33:05;92.93;;;45.95;;
35522;SDS011;61478;50.820;4.330;2023-02-11T12:38:49;79.40;;;43.08;;
35522;SDS011;61478;50.820;4.330;2023-02-11T12:41:57;81.72;;;45.20;;
35522;SDS011;61478;50.820;4.330;2023-02-11T12:45:03;90.72;;;44.40;;
35522;SDS011;61478;50.820;4.330;2023-02-11T12:47:37;82.13;;;43.90;;
35522;SDS011;61478;50.820;4.330;2023-02-11T12:55:44;84.57;;;44.95;;
35522;SDS011;61478;50.820;4.330;2023-02-11T12:58:23;82.60;;;45.15;;
35522;SDS011;61478;50.820;4.330;2023-02-11T13:01:00;94.10;;;48.92;;
35522;SDS011;61478;50.820;4.330;2023-02-11T13:04:07;95.63;;;48.70;;
35522;SDS011;61478;50.820;4.330;2023-02-11T13:06:47;89.13;;;46.25;;
35522;SDS011;61478;50.820;4.330;2023-02-11T13:09:21;94.95;;;46.65;;
35522;SDS011;61478;50.820;4.330;2023-02-11T13:12:02;91.20;;;43.97;;
35522;SDS011;61478;50.820;4.330;2023-02-11T13:14:48;84.13;;;43.63;;
35522;SDS011;61478;50.820;4.330;2023-02-11T13:17:24;87.05;;;44.72;;
35522;SDS011;61478;50.820;4.330;2023-02-11T13:20:22;87.60;;;45.90;;
35522;SDS011;61478;50.820;4.330;2023-02-11T13:23:16;80.28;;;45.53;;
35522;SDS011;61478;50.820;4.330;2023-02-11T13:26:08;82.90;;;45.95;;
35522;SDS011;61478;50.820;4.330;2023-02-11T13:28:45;95.65;;;47.63;;
35522;SDS011;61478;50.820;4.330;2023-02-11T13:31:22;85.25;;;46.70;;
35522;SDS011;61478;50.820;4.330;2023-02-11T13:33:51;86.95;;;45.83;;
35522;SDS011;61478;50.820;4.330;2023-02-11T13:36:18;91.05;;;46.00;;
35522;SDS011;61478;50.820;4.330;2023-02-11T13:41:27;91.40;;;47.83;;
35522;SDS011;61478;50.820;4.330;2023-02-11T13:46:47;94.18;;;46.95;;
35522;SDS011;61478;50.820;4.330;2023-02-11T13:49:34;83.63;;;47.25;;
35522;SDS011;61478;50.820;4.330;2023-02-11T13:52:05;86.32;;;46.00;;
35522;SDS011;61478;50.820;4.330;2023-02-11T13:54:47;89.25;;;47.03;;
35522;SDS011;61478;50.820;4.330;2023-02-11T13:59:53;93.90;;;47.22;;
35522;SDS011;61478;50.820;4.330;2023-02-11T14:02:23;84.25;;;45.15;;
35522;SDS011;61478;50.820;4.330;2023-02-11T14:08:12;89.10;;;46.50;;
35522;SDS011;61478;50.820;4.330;2023-02-11T14:18:56;91.22;;;48.20;;
35522;SDS011;61478;50.820;4.330;2023-02-11T14:26:32;76.50;;;45.95;;
35522;SDS011;61478;50.820;4.330;2023-02-11T14:34:55;88.15;;;49.38;;
35522;SDS011;61478;50.820;4.330;2023-02-11T14:40:44;82.68;;;49.03;;
35522;SDS011;61478;50.820;4.330;2023-02-11T14:43:27;81.15;;;48.40;;
35522;SDS011;61478;50.820;4.330;2023-02-11T14:46:00;82.10;;;49.40;;
35522;SDS011;61478;50.820;4.330;2023-02-11T14:48:29;89.43;;;47.17;;
35522;SDS011;61478;50.820;4.330;2023-02-11T14:51:09;80.00;;;46.47;;
35522;SDS011;61478;50.820;4.330;2023-02-11T14:53:42;86.00;;;45.90;;
35522;SDS011;61478;50.820;4.330;2023-02-11T14:56:27;74.97;;;46.22;;
35522;SDS011;61478;50.820;4.330;2023-02-11T14:58:55;82.15;;;44.70;;
35522;SDS011;61478;50.820;4.330;2023-02-11T15:04:02;79.85;;;46.42;;
35522;SDS011;61478;50.820;4.330;2023-02-11T15:11:27;78.55;;;44.63;;
35522;SDS011;61478;50.820;4.330;2023-02-11T15:14:09;72.72;;;44.33;;
35522;SDS011;61478;50.820;4.330;2023-02-11T15:16:49;90.82;;;48.13;;
35522;SDS011;61478;50.820;4.330;2023-02-11T15:19:28;70.68;;;43.88;;
35522;SDS011;61478;50.820;4.330;2023-02-11T15:21:56;77.30;;;44.70;;
35522;SDS011;61478;50.820;4.330;2023-02-11T15:24:24;74.15;;;43.85;;
35522;SDS011;61478;50.820;4.330;2023-02-11T15:27:09;85.93;;;46.65;;
35522;SDS011;61478;50.820;4.330;2023-02-11T15:29:42;84.07;;;44.90;;
35522;SDS011;61478;50.820;4.330;2023-02-11T15:34:38;70.43;;;45.55;;
35522;SDS011;61478;50.820;4.330;2023-02-11T15:37:04;69.53;;;45.90;;
35522;SDS011;61478;50.820;4.330;2023-02-11T15:47:32;78.95;;;45.25;;
35522;SDS011;61478;50.820;4.330;2023-02-11T15:49:59;76.07;;;45.78;;
35522;SDS011;61478;50.820;4.330;2023-02-11T15:52:26;70.93;;;46.88;;
35522;SDS011;61478;50.820;4.330;2023-02-11T15:54:53;79.85;;;45.30;;
35522;SDS011;61478;50.820;4.330;2023-02-11T15:57:24;73.68;;;46.25;;
35522;SDS011;61478;50.820;4.330;2023-02-11T15:59:51;73.70;;;45.10;;
35522;SDS011;61478;50.820;4.330;2023-02-11T16:02:19;75.78;;;45.70;;
35522;SDS011;61478;50.820;4.330;2023-02-11T16:04:58;76.38;;;45.75;;
35522;SDS011;61478;50.820;4.330;2023-02-11T16:10:15;71.78;;;47.35;;
35522;SDS011;61478;50.820;4.330;2023-02-11T16:12:49;73.43;;;44.83;;
35522;SDS011;61478;50.820;4.330;2023-02-11T16:16:20;76.28;;;47.80;;
35522;SDS011;61478;50.820;4.330;2023-02-11T16:20:57;77.85;;;46.58;;
35522;SDS011;61478;50.820;4.330;2023-02-11T16:23:25;65.70;;;45.42;;
35522;SDS011;61478;50.820;4.330;2023-02-11T16:26:07;77.20;;;47.55;;
35522;SDS011;61478;50.820;4.330;2023-02-11T16:28:37;75.05;;;46.13;;
35522;SDS011;61478;50.820;4.330;2023-02-11T16:31:04;73.32;;;44.78;;
35522;SDS011;61478;50.820;4.330;2023-02-11T16:33:30;70.85;;;43.83;;
35522;SDS011;61478;50.820;4.330;2023-02-11T16:35:56;64.13;;;43.67;;
35522;SDS011;61478;50.820;4.330;2023-02-11T16:38:22;69.13;;;43.97;;
35522;SDS011;61478;50.820;4.330;2023-02-11T16:40:48;71.35;;;46.35;;
35522;SDS011;61478;50.820;4.330;2023-02-11T16:43:18;68.40;;;44.22;;
35522;SDS011;61478;50.820;4.330;2023-02-11T16:45:44;71.00;;;44.28;;
35522;SDS011;61478;50.820;4.330;2023-02-11T16:48:12;71.20;;;43.63;;
35522;SDS011;61478;50.820;4.330;2023-02-11T16:50:43;68.35;;;46.45;;
35522;SDS011;61478;50.820;4.330;2023-02-11T16:53:10;69.15;;;46.45;;
35522;SDS011;61478;50.820;4.330;2023-02-11T16:55:40;67.35;;;43.33;;
35522;SDS011;61478;50.820;4.330;2023-02-11T16:58:06;69.22;;;43.50;;
35522;SDS011;61478;50.820;4.330;2023-02-11T17:00:32;65.43;;;43.75;;